Weather History for Crescent City, CA

Change the Weather History Date:

Friday, January 25, 2013

  Actual Average Record
Temperature  
Mean Temperature 47 °F 48 °F  
Max Temperature 49 °F 54 °F 67 °F (1976)
Min Temperature 44 °F 41 °F 30 °F (1954)
Degree Days  
Heating Degree Days 18 17  
Month to date heating degree days 516 425  
Since 1 July heating degree days 2574 2581  
Cooling Degree Days 0 0  
Month to date cooling degree days 0 0  
Year to date cooling degree days 0 0  
Moisture  
Dew Point 48 °F    
Average Humidity 100    
Maximum Humidity 100    
Minimum Humidity 100    
Precipitation  
Precipitation 0.92 in 0.26 in 1.97 in (1997)
Month to date precipitation 4.42 8.87  
Year to date precipitation 4.42 8.87  
Since 1 July precipitation 38.12 35.97  
Snow  
Snow 0.00 in - - ()
Month to date snowfall 0.0  
Since 1 July snowfall 0.0  
Snow Depth 0.00 in    
Sea Level Pressure  
Sea Level Pressure 30.14 in    
Wind  
Wind Speed 9 mph (South)    
Max Wind Speed 17 mph    
Max Gust Speed 22 mph    
Visibility 3 miles    
Events Fog , Rain    
T = Trace of Precipitation, MM = Missing Value Source: NWS Daily Summary

Daily Weather History Graph

Daily Weather History Graph

Search for Another Location

Airport:

Trip Planner

Search our weather history database for the weather conditions in past years. The results will help you decide how hot, cold, wet, or windy it might be!

Date:

Astronomy

Jan. 25, 2013 Rise Set
Actual Time 7:35 AM PST 5:23 PM PST
Civil Twilight 7:05 AM PST 5:53 PM PST
Nautical Twilight 6:31 AM PST 6:27 PM PST
Astronomical Twilight 5:58 AM PST 7:00 PM PST
Moon 4:26 PM PST (1/25) 6:18 AM PST (1/25)
Length of Visible Light 10h 48m
Length of Day
9h 48m
Waxing Gibbous, 98% of the Moon is Illuminated
Jan 25
Waxing Gibbous
Jan 26
Full
Feb 3
Last Quarter
Feb 9
New
Feb 17
First Quarter

Hourly Weather History & Observations

Time (PST) Temp. Windchill Dew Point Humidity Pressure Visibility Wind Dir Wind Speed Gust Speed Precip Events Conditions
12:06 AM 48.2 °F - 48.2 °F 100% 30.21 in 2.5 mi Calm Calm - N/A   Overcast
12:14 AM 48.2 °F - 48.2 °F 100% 30.21 in 3.0 mi Calm Calm - N/A   Overcast
12:27 AM 48.2 °F - 48.2 °F 100% 30.21 in 2.0 mi Calm Calm - N/A   Overcast
12:56 AM 48.0 °F - 48.0 °F 100% 30.21 in 2.5 mi Calm Calm - N/A   Overcast
1:05 AM 48.2 °F - 48.2 °F 100% 30.21 in 2.5 mi Calm Calm - N/A   Overcast
1:36 AM 48.2 °F - 46.4 °F 93% 30.20 in 3.0 mi East 3.5 mph - N/A   Overcast
1:56 AM 48.0 °F - 46.9 °F 96% 30.20 in 3.0 mi East 5.8 mph - 0.01 in Rain Light Rain
2:56 AM 48.9 °F - 48.0 °F 97% 30.19 in 5.0 mi Calm Calm - 0.04 in Rain Light Rain
3:36 AM 48.2 °F - 48.2 °F 100% 30.18 in 2.5 mi Calm Calm - 0.01 in Rain Light Rain
4:16 AM 48.2 °F - 48.2 °F 100% 30.17 in 2.5 mi SSW 4.6 mph - 0.00 in Rain Light Rain
4:23 AM 48.2 °F - 48.2 °F 100% 30.17 in 3.0 mi South 4.6 mph - 0.00 in Rain Light Rain
4:56 AM 48.9 °F - 48.0 °F 97% 30.17 in 3.0 mi South 4.6 mph - 0.00 in   Overcast
5:48 AM 48.2 °F - 48.2 °F 100% 30.16 in 4.0 mi SSE 5.8 mph - 0.00 in   Overcast
5:56 AM 48.9 °F - 48.0 °F 97% 30.16 in 4.0 mi SE 5.8 mph - 0.00 in   Overcast
6:03 AM 48.2 °F - 48.2 °F 100% 30.15 in 4.0 mi SE 5.8 mph - N/A   Overcast
6:56 AM 48.9 °F - 48.0 °F 97% 30.16 in 4.0 mi South 5.8 mph - 0.00 in   Overcast
7:40 AM 48.2 °F - 48.2 °F 100% 30.17 in 2.5 mi SSW 3.5 mph - 0.02 in Rain Light Rain
7:56 AM 48.9 °F - 48.9 °F 100% 30.17 in 3.0 mi SSE 5.8 mph - 0.03 in Rain Light Rain
8:08 AM 48.2 °F - 48.2 °F 100% 30.17 in 2.5 mi SSE 5.8 mph - 0.02 in Rain Light Rain
8:17 AM 48.2 °F - 48.2 °F 100% 30.17 in 3.0 mi South 6.9 mph - 0.02 in Rain Light Rain
8:29 AM 48.2 °F - 48.2 °F 100% 30.18 in 1.8 mi South 4.6 mph - 0.06 in Rain Rain
8:40 AM 48.2 °F - 48.2 °F 100% 30.17 in 1.2 mi SSE 6.9 mph - 0.09 in Rain Rain
8:49 AM 48.2 °F - 48.2 °F 100% 30.17 in 2.0 mi SE 8.1 mph - 0.10 in Rain Light Rain
8:56 AM 48.9 °F - 48.9 °F 100% 30.18 in 2.0 mi SSE 8.1 mph - 0.12 in Rain Rain
9:04 AM 48.2 °F - 48.2 °F 100% 30.18 in 1.8 mi South 6.9 mph - 0.03 in Rain Rain
9:12 AM 48.2 °F - 48.2 °F 100% 30.18 in 2.5 mi South 9.2 mph - 0.04 in Rain Light Rain
9:20 AM 48.2 °F - 48.2 °F 100% 30.19 in 1.2 mi South 10.4 mph - 0.08 in Rain Rain
9:37 AM 48.2 °F - 48.2 °F 100% 30.18 in 1.8 mi South 9.2 mph - 0.15 in Rain Rain
9:47 AM 48.2 °F - 48.2 °F 100% 30.16 in 2.5 mi SE 12.7 mph - 0.18 in Rain Rain
9:54 AM 48.2 °F - 48.2 °F 100% 30.16 in 3.0 mi SE 12.7 mph - 0.20 in Rain Rain
9:56 AM 48.9 °F - 48.9 °F 100% 30.17 in 3.0 mi SE 10.4 mph - 0.21 in Rain Rain
10:17 AM 48.2 °F - 48.2 °F 100% 30.18 in 2.5 mi South 13.8 mph - 0.05 in Rain Rain
10:41 AM 48.2 °F - 48.2 °F 100% 30.18 in 3.0 mi South 11.5 mph - 0.08 in Rain Light Rain
10:56 AM 48.9 °F - 48.0 °F 97% 30.18 in 3.0 mi South 13.8 mph - 0.09 in Rain Light Rain
11:21 AM 48.2 °F - 48.2 °F 100% 30.18 in 5.0 mi SSE 12.7 mph - 0.02 in Rain Light Rain
11:46 AM 48.2 °F - 48.2 °F 100% 30.16 in 4.0 mi South 13.8 mph - 0.04 in Rain Light Rain
11:56 AM 48.9 °F - 48.9 °F 100% 30.16 in 5.0 mi South 13.8 mph - 0.05 in Rain Light Rain
12:16 PM 48.2 °F - 48.2 °F 100% 30.15 in 4.0 mi South 13.8 mph - 0.00 in Rain Light Rain
12:28 PM 48.2 °F - 48.2 °F 100% 30.14 in 2.0 mi South 16.1 mph - 0.01 in Rain Light Rain
12:35 PM 48.2 °F - 48.2 °F 100% 30.14 in 1.8 mi SSE 16.1 mph - 0.01 in   Overcast
12:42 PM 48.2 °F - 48.2 °F 100% 30.13 in 2.5 mi SSE 15.0 mph - 0.01 in Rain Light Rain
12:56 PM 48.9 °F - 48.0 °F 97% 30.13 in 3.0 mi SSE 12.7 mph - 0.02 in Rain Light Rain
1:56 PM 48.0 °F - 48.0 °F 100% 30.11 in 2.5 mi SSE 15.0 mph - 0.01 in Rain Light Rain
2:17 PM 48.2 °F - 48.2 °F 100% 30.09 in 1.8 mi SSE 12.7 mph 21.9 mph 0.00 in Rain Light Rain
2:27 PM 48.2 °F - 48.2 °F 100% 30.09 in 2.0 mi SSE 11.5 mph - 0.00 in Rain Light Rain
2:56 PM 48.9 °F - 48.9 °F 100% 30.09 in 4.0 mi South 15.0 mph - 0.01 in Rain Light Rain
3:08 PM 48.2 °F - 48.2 °F 100% 30.08 in 2.5 mi South 13.8 mph - 0.01 in Rain Light Rain
3:27 PM 48.2 °F - 48.2 °F 100% 30.08 in 1.8 mi South 12.7 mph - 0.02 in Rain Light Rain
3:41 PM 48.2 °F - 48.2 °F 100% 30.08 in 2.0 mi South 12.7 mph - 0.04 in Rain Light Rain
3:48 PM 48.2 °F - 48.2 °F 100% 30.08 in 1.8 mi South 15.0 mph - 0.05 in Rain Light Rain
3:56 PM 48.9 °F - 48.9 °F 100% 30.08 in 1.8 mi South 13.8 mph - 0.08 in Rain Rain
4:07 PM 48.2 °F - 48.2 °F 100% 30.08 in 1.2 mi South 15.0 mph - 0.05 in Rain Rain
4:40 PM 48.2 °F - 48.2 °F 100% 30.08 in 2.0 mi SSE 13.8 mph - 0.14 in Rain Rain
4:56 PM 48.9 °F - 48.9 °F 100% 30.08 in 3.0 mi South 12.7 mph - 0.15 in Rain Light Rain
5:13 PM 48.2 °F - 48.2 °F 100% 30.08 in 1.8 mi South 12.7 mph - 0.02 in Rain Light Rain
5:27 PM 48.2 °F - 48.2 °F 100% 30.08 in 3.0 mi South 12.7 mph - 0.05 in Rain Light Rain
5:56 PM 48.9 °F - 48.9 °F 100% 30.08 in 7.0 mi SSE 10.4 mph - 0.07 in Rain Light Rain
6:56 PM 48.9 °F - 48.9 °F 100% 30.08 in 7.0 mi SSE 10.4 mph - 0.00 in   Overcast
7:17 PM 48.2 °F - 48.2 °F 100% 30.08 in 2.5 mi SSE 10.4 mph - N/A   Overcast
7:56 PM 48.9 °F - 48.9 °F 100% 30.08 in 1.5 mi South 8.1 mph - 0.01 in Rain Light Rain
8:20 PM 48.2 °F - 48.2 °F 100% 30.08 in 0.8 mi NW 6.9 mph - 0.01 in Rain Light Rain
8:48 PM 48.2 °F - 48.2 °F 100% 30.07 in 1.5 mi WNW 5.8 mph - 0.01 in   Overcast
8:51 PM 48.2 °F - 48.2 °F 100% 30.07 in 3.0 mi WNW 5.8 mph - 0.01 in   Overcast
8:56 PM 48.0 °F - 48.0 °F 100% 30.08 in 1.5 mi NW 8.1 mph - 0.01 in   Overcast
8:59 PM 48.2 °F - 48.2 °F 100% 30.07 in 0.8 mi NW 5.8 mph - N/A   Mist
9:27 PM 46.4 °F 42.9 °F 46.4 °F 100% 30.08 in 1.8 mi WNW 6.9 mph - N/A   Overcast
9:35 PM 46.4 °F 42.9 °F 46.4 °F 100% 30.08 in 2.0 mi WNW 6.9 mph - N/A   Overcast
9:56 PM 46.0 °F 43.1 °F 46.0 °F 100% 30.09 in 2.0 mi NW 5.8 mph - N/A   Overcast
10:10 PM 46.4 °F 44.3 °F 46.4 °F 100% 30.09 in 1.5 mi NW 4.6 mph - N/A   Overcast
10:21 PM 46.4 °F 43.5 °F 46.4 °F 100% 30.10 in 1.0 mi WNW 5.8 mph - N/A   Mist
10:32 PM 46.4 °F 44.3 °F 46.4 °F 100% 30.10 in 2.0 mi WNW 4.6 mph - N/A   Overcast
10:46 PM 46.4 °F 44.3 °F 46.4 °F 100% 30.10 in 1.2 mi WNW 4.6 mph - N/A   Overcast
10:56 PM 45.0 °F 43.5 °F 45.0 °F 100% 30.11 in 0.5 mi West 3.5 mph - N/A Fog Fog
11:56 PM 44.1 °F - 44.1 °F 100% 30.11 in 0.8 mi Calm Calm - N/A   Overcast